Accueil
Images satellite Prévisions 10 joursClimatMétéo marine Cyclones Foudre AéroportsFAQ Actualités A propos
Météo : Europe Afrique Amérique du Nord Amérique du Sud Asie Australie-Océanie Autres
Langues Contact

Bauru, São Paulo, Brésil

latitude: 22-19S, longitude: 049-04W, altitude: 590 m


METAR: SBBU 041300Z 10005KT CAVOK 26/15 Q1022
TAF: SBBU 041030Z 0412/0424 10005KT CAVOK TN22/0412Z TX31/0418Z RMK PEB

Heure: 11:03 (14:03 UTC)

Observation

Le bulletin a été fait il y a 1 heure et 3 minutes, à 13:00 UTC
Vent 5 kt de est
Température 26°C
Humidité 51%
Pression 1022 hPa
Visibilité 10 km ou plus
pas de nuages en-dessous de 1500 mètres et pas de cumulonimbus.

Changer d'unités

Prévision

Le bulletin a été fait il y a 3 heures et 33 minutes, à 10:30 UTC
Prévision valable du 04 à 12 UTC au 04 à 24 UTC
Vent 5 kt de est
Visibilité 10 km ou plus
pas de nuages en-dessous de 1500 mètres et pas de cumulonimbus.
Les informations qui figurent sur ce site font l'objet d'une clause de non-responsabilité
Météo : Europe Afrique Amérique du Nord Amérique du Sud Asie Australie-Océanie Autres
Images satellite Prévisions 10 joursClimatMétéo marine Cyclones Foudre AéroportsFAQ Langues Contact Actualités A propos